Time;durP1;ratioP1;P1;durP2;ratioP2;P2;SDS_P1;SDS_P2;PMS_P1;PMS_P2;Temp;Humidity;BMP_temperature;BMP_pressure;BME280_temperature;BME280_humidity;BME280_pressure;Samples;Min_cycle;Max_cycle;Signal;HPM_P1;HPM_P2
2023/06/29 00:00:13;;;;;;;5.43;3.60;;;;;;;;;;6161514;23;20372;-93
2023/06/29 00:02:39;;;;;;;5.80;3.90;;;;;;;;;;6162127;23;20393;-93
2023/06/29 00:05:06;;;;;;;5.17;3.70;;;;;;;;;;6161708;23;20373;-93
2023/06/29 00:07:33;;;;;;;6.50;4.23;;;;;;;;;;6165136;23;20366;-94
2023/06/29 00:10:00;;;;;;;5.70;4.30;;;;;;;;;;6160660;23;20476;-92
2023/06/29 00:12:26;;;;;;;6.53;4.30;;;;;;;;;;6162271;23;20393;-93
2023/06/29 00:14:52;;;;;;;7.83;4.90;;;;;;;;;;6159523;23;20393;-93
2023/06/29 00:17:20;;;;;;;5.07;4.07;;;;;;;;;;6161068;23;20742;-93
2023/06/29 00:19:49;;;;;;;4.27;3.83;;;;;;;;;;6161744;23;20417;-93
2023/06/29 00:22:15;;;;;;;7.40;5.13;;;;;;;;;;6162599;23;20393;-93
2023/06/29 00:24:44;;;;;;;3.70;3.40;;;;;;;;;;6160939;23;20857;-93
2023/06/29 00:27:13;;;;;;;6.40;4.83;;;;;;;;;;6162256;23;20385;-93
2023/06/29 00:29:41;;;;;;;4.13;3.70;;;;;;;;;;6161969;23;20431;-93
2023/06/29 00:32:07;;;;;;;22.13;4.80;;;;;;;;;;6112622;23;20395;-94
2023/06/29 00:34:33;;;;;;;4.40;4.00;;;;;;;;;;6113385;23;20384;-94
2023/06/29 00:36:59;;;;;;;6.30;3.73;;;;;;;;;;6110084;23;20392;-94
2023/06/29 00:39:25;;;;;;;4.10;3.70;;;;;;;;;;6114663;23;20385;-93
2023/06/29 00:41:53;;;;;;;8.00;4.23;;;;;;;;;;6110885;23;20381;-94
2023/06/29 00:44:19;;;;;;;4.73;3.13;;;;;;;;;;6112890;23;20536;-93
2023/06/29 00:46:45;;;;;;;4.10;3.70;;;;;;;;;;6111875;23;20389;-94
2023/06/29 00:49:12;;;;;;;8.90;5.83;;;;;;;;;;6111735;23;20408;-93
2023/06/29 00:51:38;;;;;;;6.70;3.77;;;;;;;;;;6112063;23;20412;-93
2023/06/29 00:54:04;;;;;;;6.00;4.30;;;;;;;;;;6112349;23;20381;-94
2023/06/29 00:56:31;;;;;;;4.60;3.60;;;;;;;;;;6111069;23;20388;-93
2023/06/29 00:58:57;;;;;;;6.50;3.53;;;;;;;;;;6112196;23;20384;-93
2023/06/29 01:01:23;;;;;;;5.83;3.97;;;;;;;;;;6113875;23;20395;-93
2023/06/29 01:03:49;;;;;;;4.93;4.43;;;;;;;;;;6114909;23;20834;-93
2023/06/29 01:06:17;;;;;;;4.93;3.50;;;;;;;;;;6111757;23;20414;-93
2023/06/29 01:08:43;;;;;;;6.67;4.30;;;;;;;;;;6114958;23;20491;-93
2023/06/29 01:11:09;;;;;;;3.97;3.57;;;;;;;;;;6113823;23;20400;-93
2023/06/29 01:13:35;;;;;;;4.57;4.17;;;;;;;;;;6115418;23;20845;-93
2023/06/29 01:16:01;;;;;;;5.27;4.00;;;;;;;;;;6112521;23;20449;-92
2023/06/29 01:18:29;;;;;;;4.60;4.00;;;;;;;;;;6112796;23;20377;-93
2023/06/29 01:20:55;;;;;;;5.50;3.30;;;;;;;;;;6113148;23;20408;-93
2023/06/29 01:23:24;;;;;;;5.17;3.83;;;;;;;;;;6110728;23;20384;-92
2023/06/29 01:25:50;;;;;;;7.43;4.17;;;;;;;;;;6133163;23;20729;-93
2023/06/29 01:28:16;;;;;;;4.93;4.53;;;;;;;;;;6111131;23;20385;-93
2023/06/29 01:30:49;;;;;;;5.50;4.00;;;;;;;;;;6111970;23;20468;-93
2023/06/29 01:33:19;;;;;;;5.03;4.47;;;;;;;;;;6116885;23;20821;-93
2023/06/29 01:35:45;;;;;;;8.47;4.80;;;;;;;;;;6112545;23;20872;-93
2023/06/29 01:38:16;;;;;;;4.63;3.77;;;;;;;;;;6111205;23;20376;-93
2023/06/29 01:40:43;;;;;;;4.20;3.80;;;;;;;;;;6112574;23;20823;-92
2023/06/29 01:43:09;;;;;;;6.03;4.37;;;;;;;;;;6115220;23;20452;-93
2023/06/29 01:45:35;;;;;;;8.80;3.67;;;;;;;;;;6111951;23;20384;-93
2023/06/29 01:48:01;;;;;;;4.33;3.73;;;;;;;;;;6112517;23;20380;-93
2023/06/29 01:50:27;;;;;;;4.20;3.80;;;;;;;;;;6113688;23;20385;-93
2023/06/29 01:52:53;;;;;;;5.00;4.43;;;;;;;;;;6135827;23;20459;-92
2023/06/29 01:55:19;;;;;;;4.80;4.40;;;;;;;;;;6111138;23;20397;-93
2023/06/29 01:57:45;;;;;;;7.03;4.40;;;;;;;;;;6113341;23;20389;-93
2023/06/29 02:00:11;;;;;;;6.13;4.30;;;;;;;;;;6111759;23;20377;-93
2023/06/29 02:02:37;;;;;;;7.20;4.27;;;;;;;;;;6114851;23;20397;-92
2023/06/29 02:05:04;;;;;;;5.43;3.80;;;;;;;;;;6113215;23;20928;-93
2023/06/29 02:07:30;;;;;;;4.43;4.03;;;;;;;;;;6115069;23;20408;-93
2023/06/29 02:09:56;;;;;;;4.40;4.00;;;;;;;;;;6113462;23;20428;-92
2023/06/29 02:12:22;;;;;;;4.60;4.20;;;;;;;;;;6114977;23;20381;-93
2023/06/29 02:14:48;;;;;;;4.60;4.20;;;;;;;;;;6112252;23;20436;-94
2023/06/29 02:17:14;;;;;;;6.90;4.47;;;;;;;;;;6115244;23;20369;-93
2023/06/29 02:19:39;;;;;;;4.47;4.07;;;;;;;;;;6112164;23;20448;-93
2023/06/29 02:22:05;;;;;;;4.97;3.90;;;;;;;;;;6114473;23;20392;-92
2023/06/29 02:24:32;;;;;;;8.00;4.40;;;;;;;;;;6113117;23;20385;-93
2023/06/29 02:26:58;;;;;;;5.10;4.70;;;;;;;;;;6114372;23;20730;-92
2023/06/29 02:29:24;;;;;;;4.27;3.80;;;;;;;;;;6114770;23;20432;-93
2023/06/29 02:31:51;;;;;;;5.47;4.10;;;;;;;;;;6144180;23;20380;-93
2023/06/29 02:34:17;;;;;;;5.60;4.53;;;;;;;;;;6142697;23;20411;-93
2023/06/29 02:36:43;;;;;;;5.17;4.40;;;;;;;;;;6144601;23;20376;-92
2023/06/29 02:39:09;;;;;;;4.90;4.40;;;;;;;;;;6143342;23;20391;-92
2023/06/29 02:41:35;;;;;;;4.20;3.80;;;;;;;;;;6146233;23;20789;-93
2023/06/29 02:44:01;;;;;;;5.17;4.67;;;;;;;;;;6144251;23;20775;-92
2023/06/29 02:46:27;;;;;;;5.23;4.50;;;;;;;;;;6145883;23;20376;-92
2023/06/29 02:48:53;;;;;;;4.10;3.70;;;;;;;;;;6144032;23;20903;-93
2023/06/29 02:51:19;;;;;;;4.40;4.00;;;;;;;;;;6144014;23;20387;-93
2023/06/29 02:53:45;;;;;;;5.43;4.13;;;;;;;;;;6143254;23;20384;-93
2023/06/29 02:56:11;;;;;;;4.63;4.23;;;;;;;;;;6142778;23;20368;-93
2023/06/29 02:58:37;;;;;;;4.83;4.27;;;;;;;;;;6143122;23;20403;-94
2023/06/29 03:01:04;;;;;;;6.00;5.40;;;;;;;;;;6142165;23;20391;-94
2023/06/29 03:03:31;;;;;;;5.27;3.80;;;;;;;;;;6140639;23;20467;-94
2023/06/29 03:05:57;;;;;;;9.73;3.70;;;;;;;;;;6142585;23;20384;-93
2023/06/29 03:08:23;;;;;;;5.67;4.10;;;;;;;;;;6143860;23;20424;-95
2023/06/29 03:10:49;;;;;;;4.87;3.87;;;;;;;;;;6146939;23;20880;-95
2023/06/29 03:13:15;;;;;;;5.73;4.67;;;;;;;;;;6146724;23;20396;-95
2023/06/29 03:15:41;;;;;;;4.90;3.90;;;;;;;;;;6144568;23;20392;-95
2023/06/29 03:18:07;;;;;;;4.57;4.10;;;;;;;;;;6147050;23;20383;-95
2023/06/29 03:20:33;;;;;;;7.43;4.97;;;;;;;;;;6144751;23;20482;-96
2023/06/29 03:25:35;;;;;;;6.50;4.63;;;;;;;;;;6195995;23;20460;-96
2023/06/29 03:28:01;;;;;;;4.73;4.17;;;;;;;;;;6147825;23;20475;-95
2023/06/29 03:30:27;;;;;;;4.87;4.40;;;;;;;;;;6147218;23;20451;-95
2023/06/29 03:32:53;;;;;;;4.83;4.37;;;;;;;;;;6147317;23;20408;-95
2023/06/29 03:35:20;;;;;;;4.60;4.17;;;;;;;;;;6146351;23;20401;-93
2023/06/29 03:37:46;;;;;;;5.03;4.53;;;;;;;;;;6148917;23;20734;-94
2023/06/29 03:40:16;;;;;;;7.83;4.50;;;;;;;;;;6145071;23;20508;-95
2023/06/29 03:42:46;;;;;;;5.70;4.17;;;;;;;;;;6148218;23;20397;-95
2023/06/29 03:45:14;;;;;;;5.47;4.13;;;;;;;;;;6147153;23;20487;-94
2023/06/29 03:52:52;;;;;;;4.93;4.40;;;;;;;;;;6198487;22;20425;-94
2023/06/29 03:55:18;;;;;;;5.30;3.63;;;;;;;;;;6170147;23;20376;-95
2023/06/29 03:57:44;;;;;;;7.03;4.97;;;;;;;;;;6171668;23;20376;-95
2023/06/29 04:00:10;;;;;;;5.40;4.33;;;;;;;;;;6170755;23;20384;-94
2023/06/29 04:02:36;;;;;;;6.37;5.20;;;;;;;;;;6171245;23;20384;-94
2023/06/29 04:05:03;;;;;;;6.73;4.70;;;;;;;;;;6171959;23;20388;-94
2023/06/29 04:07:35;;;;;;;5.77;5.17;;;;;;;;;;6172701;23;20456;-96
2023/06/29 04:10:02;;;;;;;5.90;3.93;;;;;;;;;;6173835;23;20511;-96
2023/06/29 04:12:28;;;;;;;8.73;4.47;;;;;;;;;;6175204;23;20384;-96
2023/06/29 04:14:56;;;;;;;4.80;4.40;;;;;;;;;;6174013;23;20380;-96
2023/06/29 04:17:22;;;;;;;6.23;5.40;;;;;;;;;;6174913;23;20380;-96
2023/06/29 04:19:48;;;;;;;5.53;4.50;;;;;;;;;;6175663;23;20379;-95
2023/06/29 04:22:14;;;;;;;5.00;4.57;;;;;;;;;;6172786;23;20399;-96
2023/06/29 04:24:40;;;;;;;4.97;4.47;;;;;;;;;;6173556;23;20399;-96
2023/06/29 05:06:06;;;;;;;7.53;3.93;;;;;;;;;;6226634;23;20858;-94
2023/06/29 05:08:32;;;;;;;5.90;4.73;;;;;;;;;;6204717;23;20763;-96
2023/06/29 05:10:58;;;;;;;6.73;4.70;;;;;;;;;;6176470;23;20383;-96
2023/06/29 05:13:25;;;;;;;11.93;5.00;;;;;;;;;;6177079;23;20379;-96
2023/06/29 05:15:51;;;;;;;5.67;5.17;;;;;;;;;;6176666;23;20395;-96
2023/06/29 05:18:17;;;;;;;4.90;4.10;;;;;;;;;;6177394;23;20386;-96
2023/06/29 05:20:43;;;;;;;6.77;5.43;;;;;;;;;;6172367;23;20437;-95
2023/06/29 05:23:10;;;;;;;8.53;4.90;;;;;;;;;;6173851;23;20406;-94
2023/06/29 05:25:36;;;;;;;8.57;4.87;;;;;;;;;;6170031;23;20401;-95
2023/06/29 05:28:02;;;;;;;6.80;4.10;;;;;;;;;;6174693;23;20433;-95
2023/06/29 05:30:28;;;;;;;4.70;4.30;;;;;;;;;;6171852;23;20415;-95
2023/06/29 05:32:54;;;;;;;5.67;4.07;;;;;;;;;;6171566;23;20363;-95
2023/06/29 05:35:22;;;;;;;6.30;4.70;;;;;;;;;;6172180;23;20455;-95
2023/06/29 05:37:48;;;;;;;7.60;4.00;;;;;;;;;;6173792;23;20713;-95
2023/06/29 05:40:14;;;;;;;6.03;3.87;;;;;;;;;;6171778;23;20383;-94
2023/06/29 05:42:40;;;;;;;12.87;4.40;;;;;;;;;;6174936;23;20391;-94
2023/06/29 05:45:07;;;;;;;5.50;4.10;;;;;;;;;;6176028;23;20465;-94
2023/06/29 05:47:33;;;;;;;4.97;4.47;;;;;;;;;;6173374;23;20383;-94
2023/06/29 05:49:59;;;;;;;10.70;4.47;;;;;;;;;;6174615;23;21139;-94
2023/06/29 05:52:30;;;;;;;6.90;4.67;;;;;;;;;;6201600;23;20433;-95
2023/06/29 05:54:56;;;;;;;5.30;4.17;;;;;;;;;;6201365;23;20379;-94
2023/06/29 05:57:23;;;;;;;5.70;4.57;;;;;;;;;;6178930;23;20383;-94
2023/06/29 05:59:51;;;;;;;6.27;4.20;;;;;;;;;;6200273;23;20414;-94
2023/06/29 06:02:17;;;;;;;6.10;4.23;;;;;;;;;;6177190;23;20378;-93
2023/06/29 06:04:43;;;;;;;5.30;3.90;;;;;;;;;;6176931;23;20454;-93
2023/06/29 06:07:10;;;;;;;5.77;3.63;;;;;;;;;;6177443;23;20406;-92
2023/06/29 06:09:36;;;;;;;5.07;3.80;;;;;;;;;;6177098;23;20442;-93
2023/06/29 06:12:05;;;;;;;4.67;3.67;;;;;;;;;;6177586;23;20376;-93
2023/06/29 06:14:31;;;;;;;6.93;4.30;;;;;;;;;;6178612;23;20382;-92
2023/06/29 06:16:57;;;;;;;6.50;3.70;;;;;;;;;;6177893;23;21145;-93
2023/06/29 06:19:23;;;;;;;5.70;3.83;;;;;;;;;;6177251;23;20380;-95
2023/06/29 06:21:49;;;;;;;6.03;4.87;;;;;;;;;;6179770;23;20367;-95
2023/06/29 06:24:15;;;;;;;3.50;3.20;;;;;;;;;;6178972;23;20387;-92
2023/06/29 06:26:41;;;;;;;5.33;4.03;;;;;;;;;;6177868;23;20389;-94
2023/06/29 06:29:07;;;;;;;6.10;4.00;;;;;;;;;;6177215;23;20415;-94
2023/06/29 06:31:33;;;;;;;4.20;3.80;;;;;;;;;;6181007;23;20379;-93
2023/06/29 06:36:35;;;;;;;9.70;4.10;;;;;;;;;;6184976;23;20453;-94
2023/06/29 06:39:01;;;;;;;6.53;4.33;;;;;;;;;;6171167;23;20402;-93
2023/06/29 06:41:27;;;;;;;6.77;4.13;;;;;;;;;;6174872;23;20375;-94
2023/06/29 06:43:53;;;;;;;5.60;3.70;;;;;;;;;;6175385;23;20407;-94
2023/06/29 06:46:21;;;;;;;6.37;4.03;;;;;;;;;;6176102;23;20390;-96
2023/06/29 06:48:48;;;;;;;8.30;4.30;;;;;;;;;;6202747;23;20483;-96
2023/06/29 06:51:14;;;;;;;6.40;4.00;;;;;;;;;;6179026;23;20437;-95
2023/06/29 06:53:40;;;;;;;4.70;3.87;;;;;;;;;;6181379;23;20427;-96
2023/06/29 06:56:06;;;;;;;5.10;3.87;;;;;;;;;;6180167;23;20379;-96
2023/06/29 06:58:35;;;;;;;6.00;4.47;;;;;;;;;;6180345;23;20367;-95
2023/06/29 07:01:01;;;;;;;7.30;4.80;;;;;;;;;;6179322;23;20417;-96
2023/06/29 07:03:27;;;;;;;6.60;4.87;;;;;;;;;;6181424;23;20415;-96
2023/06/29 07:05:53;;;;;;;4.37;3.90;;;;;;;;;;6176991;23;20383;-96
2023/06/29 07:08:19;;;;;;;6.90;4.23;;;;;;;;;;6177156;23;20383;-96
2023/06/29 07:10:46;;;;;;;7.80;4.47;;;;;;;;;;6176813;23;20433;-96
2023/06/29 07:13:12;;;;;;;4.90;4.30;;;;;;;;;;6178728;23;20398;-96
2023/06/29 07:15:38;;;;;;;4.83;4.23;;;;;;;;;;6176665;23;20882;-96
2023/06/29 07:18:04;;;;;;;5.83;4.20;;;;;;;;;;6178858;23;20386;-95
2023/06/29 07:20:30;;;;;;;6.07;4.30;;;;;;;;;;6179034;23;20384;-95
2023/06/29 07:22:56;;;;;;;6.37;4.93;;;;;;;;;;6175370;23;20379;-95
2023/06/29 07:25:22;;;;;;;6.50;4.70;;;;;;;;;;6174778;23;20410;-95
2023/06/29 07:27:48;;;;;;;4.37;3.90;;;;;;;;;;6175977;23;20368;-96
2023/06/29 07:30:14;;;;;;;6.60;4.70;;;;;;;;;;6136723;23;20425;-93
2023/06/29 07:32:40;;;;;;;6.83;4.10;;;;;;;;;;6113360;23;20412;-94
2023/06/29 07:35:06;;;;;;;7.43;5.43;;;;;;;;;;6113918;23;20395;-94
2023/06/29 07:37:33;;;;;;;5.93;4.63;;;;;;;;;;6113147;23;20421;-95
2023/06/29 07:40:00;;;;;;;5.40;4.80;;;;;;;;;;6118999;23;20407;-95
2023/06/29 07:42:26;;;;;;;4.97;3.47;;;;;;;;;;6110281;23;20432;-94
2023/06/29 07:44:52;;;;;;;7.60;4.80;;;;;;;;;;6114772;23;20480;-94
2023/06/29 07:47:20;;;;;;;7.33;4.80;;;;;;;;;;6112059;23;20381;-94
2023/06/29 07:49:46;;;;;;;6.77;3.93;;;;;;;;;;6112402;23;20489;-94
2023/06/29 07:52:12;;;;;;;8.30;4.27;;;;;;;;;;6110607;23;20598;-94
2023/06/29 07:54:38;;;;;;;6.50;4.27;;;;;;;;;;6109284;23;20388;-93
2023/06/29 07:57:04;;;;;;;6.70;3.73;;;;;;;;;;6108385;23;20391;-94
2023/06/29 07:59:34;;;;;;;6.07;3.80;;;;;;;;;;6112035;23;20388;-94
2023/06/29 08:02:02;;;;;;;6.40;3.53;;;;;;;;;;6163121;23;20391;-95
2023/06/29 08:04:29;;;;;;;4.50;3.13;;;;;;;;;;6200988;23;20409;-95
2023/06/29 08:06:55;;;;;;;7.47;4.07;;;;;;;;;;6172886;23;20391;-96
2023/06/29 08:09:21;;;;;;;3.67;3.13;;;;;;;;;;6177153;23;20403;-96
2023/06/29 08:11:50;;;;;;;6.27;3.80;;;;;;;;;;6172432;23;20406;-92
2023/06/29 08:14:16;;;;;;;4.63;3.97;;;;;;;;;;6196626;23;21188;-92
2023/06/29 08:16:42;;;;;;;7.73;3.27;;;;;;;;;;6172206;23;20379;-91
2023/06/29 08:19:09;;;;;;;6.83;3.27;;;;;;;;;;6167922;23;20414;-92
2023/06/29 08:21:36;;;;;;;5.20;3.70;;;;;;;;;;6173104;23;20446;-92
2023/06/29 08:24:04;;;;;;;4.83;4.00;;;;;;;;;;6172222;23;20444;-94
2023/06/29 08:26:31;;;;;;;3.10;2.80;;;;;;;;;;6175449;23;20407;-93
2023/06/29 08:28:57;;;;;;;4.13;3.37;;;;;;;;;;6171151;23;20418;-91
2023/06/29 08:31:23;;;;;;;6.70;3.27;;;;;;;;;;6173818;23;20385;-90
2023/06/29 08:33:50;;;;;;;4.50;3.20;;;;;;;;;;6168753;23;20424;-92
2023/06/29 08:36:16;;;;;;;7.97;3.10;;;;;;;;;;6174350;23;20418;-92
2023/06/29 08:38:46;;;;;;;4.50;3.33;;;;;;;;;;6170370;23;20399;-91
2023/06/29 08:41:13;;;;;;;7.17;4.17;;;;;;;;;;6177514;23;20363;-91
2023/06/29 08:43:39;;;;;;;4.20;3.40;;;;;;;;;;6172096;23;20442;-91
2023/06/29 08:46:06;;;;;;;17.77;4.20;;;;;;;;;;6172899;23;20481;-91
2023/06/29 08:48:33;;;;;;;7.03;3.60;;;;;;;;;;6170278;23;20748;-92
2023/06/29 08:51:10;;;;;;;4.40;3.03;;;;;;;;;;6171476;23;20414;-92
2023/06/29 08:53:36;;;;;;;4.93;2.83;;;;;;;;;;6170389;23;20359;-90
2023/06/29 08:56:03;;;;;;;4.00;3.20;;;;;;;;;;6173280;23;20449;-91
2023/06/29 08:58:30;;;;;;;3.20;2.67;;;;;;;;;;6170649;23;20844;-91
2023/06/29 09:00:56;;;;;;;5.97;3.43;;;;;;;;;;6173512;23;20387;-90
2023/06/29 09:03:26;;;;;;;4.83;3.60;;;;;;;;;;6169933;23;20426;-91
2023/06/29 09:05:55;;;;;;;5.87;2.90;;;;;;;;;;6199247;23;20396;-92
2023/06/29 09:08:21;;;;;;;3.20;2.90;;;;;;;;;;6171426;23;20383;-92
2023/06/29 09:10:47;;;;;;;3.37;2.43;;;;;;;;;;6175614;23;20410;-91
2023/06/29 09:13:13;;;;;;;8.97;3.70;;;;;;;;;;6170427;23;20871;-90
2023/06/29 09:15:40;;;;;;;4.40;2.97;;;;;;;;;;6168816;23;20405;-91
2023/06/29 09:18:07;;;;;;;4.77;2.80;;;;;;;;;;6171803;23;20387;-91
2023/06/29 09:20:36;;;;;;;3.87;2.80;;;;;;;;;;6170850;23;20874;-91
2023/06/29 09:23:04;;;;;;;5.40;3.10;;;;;;;;;;6172948;23;20728;-90
2023/06/29 09:25:30;;;;;;;6.60;3.20;;;;;;;;;;6195025;23;20370;-91
2023/06/29 09:28:06;;;;;;;4.53;2.90;;;;;;;;;;6198060;23;20399;-91
2023/06/29 09:30:39;;;;;;;4.10;3.13;;;;;;;;;;6170133;23;20423;-91
2023/06/29 09:33:11;;;;;;;5.23;3.00;;;;;;;;;;6175599;23;20441;-91
2023/06/29 09:35:41;;;;;;;4.80;3.10;;;;;;;;;;6170321;23;20363;-90
2023/06/29 09:38:07;;;;;;;3.60;2.40;;;;;;;;;;6173961;23;20577;-91
2023/06/29 09:40:45;;;;;;;3.77;3.10;;;;;;;;;;6171870;23;20880;-91
2023/06/29 09:43:18;;;;;;;3.30;2.67;;;;;;;;;;6176679;23;20812;-91
2023/06/29 09:45:44;;;;;;;4.17;3.13;;;;;;;;;;6196765;23;20386;-92
2023/06/29 09:48:12;;;;;;;5.00;3.13;;;;;;;;;;6174877;23;20379;-92
2023/06/29 09:50:40;;;;;;;4.60;2.97;;;;;;;;;;6173377;23;20964;-91
2023/06/29 09:53:08;;;;;;;3.93;3.00;;;;;;;;;;6172015;23;20401;-92
2023/06/29 09:55:38;;;;;;;3.93;2.60;;;;;;;;;;6172235;23;20378;-92
2023/06/29 09:58:04;;;;;;;3.93;2.93;;;;;;;;;;6171977;23;20442;-90
2023/06/29 10:00:32;;;;;;;4.00;3.23;;;;;;;;;;6170240;23;20930;-92
2023/06/29 10:03:02;;;;;;;3.13;2.73;;;;;;;;;;6122679;23;20371;-91
2023/06/29 10:05:31;;;;;;;3.20;2.70;;;;;;;;;;6173255;23;20422;-91
2023/06/29 10:07:58;;;;;;;5.57;2.77;;;;;;;;;;6197072;23;20453;-92
2023/06/29 10:10:25;;;;;;;5.97;3.70;;;;;;;;;;6196060;23;20419;-92
2023/06/29 10:12:52;;;;;;;4.40;2.70;;;;;;;;;;6174753;23;20387;-92
2023/06/29 10:15:18;;;;;;;3.93;3.53;;;;;;;;;;6173541;23;20863;-93
2023/06/29 10:17:53;;;;;;;2.80;2.50;;;;;;;;;;6175307;23;20847;-92
2023/06/29 10:20:20;;;;;;;3.20;2.90;;;;;;;;;;6173091;23;20373;-91
2023/06/29 10:22:49;;;;;;;4.10;3.23;;;;;;;;;;6173671;23;20859;-92
2023/06/29 10:25:17;;;;;;;3.70;3.27;;;;;;;;;;6197820;23;20378;-93
2023/06/29 10:27:43;;;;;;;4.20;3.73;;;;;;;;;;6173639;23;20416;-93
2023/06/29 10:30:09;;;;;;;4.67;3.43;;;;;;;;;;6173281;22;20414;-92
2023/06/29 10:32:35;;;;;;;3.00;2.70;;;;;;;;;;6173733;23;20387;-92
2023/06/29 10:35:11;;;;;;;3.50;2.80;;;;;;;;;;6171367;23;20828;-93
2023/06/29 10:37:41;;;;;;;4.77;3.20;;;;;;;;;;6173361;23;20912;-90
2023/06/29 10:40:16;;;;;;;4.77;3.27;;;;;;;;;;6173128;23;20462;-91
2023/06/29 10:42:42;;;;;;;5.33;3.03;;;;;;;;;;6176777;23;20413;-90
2023/06/29 10:45:18;;;;;;;4.00;3.27;;;;;;;;;;6196076;23;20371;-91
2023/06/29 10:47:44;;;;;;;6.27;3.63;;;;;;;;;;6192074;23;20433;-91
2023/06/29 10:50:10;;;;;;;4.57;3.00;;;;;;;;;;6170952;23;20486;-91
2023/06/29 10:52:36;;;;;;;4.83;3.03;;;;;;;;;;6193148;23;20406;-91
2023/06/29 10:55:16;;;;;;;9.83;3.70;;;;;;;;;;6170514;23;20462;-92
2023/06/29 10:57:49;;;;;;;5.10;3.50;;;;;;;;;;6195416;23;20375;-90
2023/06/29 11:00:15;;;;;;;4.13;3.30;;;;;;;;;;6168150;23;20391;-91
2023/06/29 11:02:44;;;;;;;5.27;4.17;;;;;;;;;;6169818;23;20387;-92
2023/06/29 11:05:18;;;;;;;4.10;3.43;;;;;;;;;;6170147;23;20441;-92
2023/06/29 11:07:44;;;;;;;5.90;3.50;;;;;;;;;;6171395;23;20388;-92
2023/06/29 11:10:10;;;;;;;6.00;4.00;;;;;;;;;;6169811;23;20470;-91
2023/06/29 11:12:37;;;;;;;4.50;3.93;;;;;;;;;;6170015;23;20380;-92
2023/06/29 11:15:04;;;;;;;6.70;3.80;;;;;;;;;;6168077;23;20716;-91
2023/06/29 11:17:34;;;;;;;4.40;3.47;;;;;;;;;;6170489;23;20386;-91
2023/06/29 11:20:00;;;;;;;3.93;3.53;;;;;;;;;;6169241;23;20390;-91
2023/06/29 11:22:27;;;;;;;3.83;3.30;;;;;;;;;;6168131;23;20414;-91
2023/06/29 11:24:53;;;;;;;4.10;3.20;;;;;;;;;;6168780;23;20383;-90
2023/06/29 11:27:22;;;;;;;4.83;3.53;;;;;;;;;;6167519;23;20795;-91
2023/06/29 11:29:54;;;;;;;5.77;4.20;;;;;;;;;;6164595;23;20510;-92
2023/06/29 11:32:26;;;;;;;6.20;4.50;;;;;;;;;;6170012;23;20414;-92
2023/06/29 11:34:59;;;;;;;4.70;4.20;;;;;;;;;;6171147;23;20375;-90
2023/06/29 11:37:25;;;;;;;7.00;4.50;;;;;;;;;;6171443;23;20425;-92
2023/06/29 11:39:51;;;;;;;5.77;5.20;;;;;;;;;;6170551;23;20390;-89
2023/06/29 11:42:18;;;;;;;4.23;3.63;;;;;;;;;;6172887;23;20387;-93
2023/06/29 11:44:45;;;;;;;5.93;4.90;;;;;;;;;;6171327;23;20379;-90
2023/06/29 11:47:13;;;;;;;7.30;4.80;;;;;;;;;;6171798;23;20383;-89
2023/06/29 11:49:39;;;;;;;7.60;5.07;;;;;;;;;;6172063;23;20715;-91
2023/06/29 11:52:05;;;;;;;8.47;6.67;;;;;;;;;;6169446;23;20461;-91
2023/06/29 11:54:32;;;;;;;7.50;5.00;;;;;;;;;;6170204;23;20785;-90
2023/06/29 11:56:58;;;;;;;6.87;4.43;;;;;;;;;;6171628;23;20379;-92
2023/06/29 11:59:24;;;;;;;6.10;5.00;;;;;;;;;;6170639;23;20392;-90
2023/06/29 12:01:50;;;;;;;6.53;4.10;;;;;;;;;;6170145;23;20374;-90
2023/06/29 12:04:16;;;;;;;5.80;4.37;;;;;;;;;;6172629;23;20390;-90
2023/06/29 12:06:52;;;;;;;5.30;4.80;;;;;;;;;;6170320;23;20429;-91
2023/06/29 12:09:18;;;;;;;8.10;5.50;;;;;;;;;;6172941;23;20442;-92
2023/06/29 12:11:44;;;;;;;5.67;4.40;;;;;;;;;;6171199;23;20387;-92
2023/06/29 12:14:11;;;;;;;7.20;5.43;;;;;;;;;;6169593;23;20427;-93
2023/06/29 12:16:43;;;;;;;6.00;4.80;;;;;;;;;;6170964;23;20433;-92
2023/06/29 12:19:14;;;;;;;8.63;6.43;;;;;;;;;;6175011;23;20886;-93
2023/06/29 12:21:40;;;;;;;7.43;6.03;;;;;;;;;;6170962;23;20387;-89
2023/06/29 12:24:06;;;;;;;9.97;6.23;;;;;;;;;;6170949;23;20464;-91
2023/06/29 12:26:32;;;;;;;11.87;6.70;;;;;;;;;;6171208;23;20772;-92
2023/06/29 12:28:58;;;;;;;10.50;5.83;;;;;;;;;;6170854;23;20418;-92
2023/06/29 12:31:28;;;;;;;8.93;6.37;;;;;;;;;;6170022;23;20451;-91
2023/06/29 12:33:54;;;;;;;7.00;6.20;;;;;;;;;;6197562;23;20458;-91
2023/06/29 12:36:23;;;;;;;7.00;5.30;;;;;;;;;;6168292;23;20383;-91
2023/06/29 12:38:51;;;;;;;8.13;6.13;;;;;;;;;;6170454;23;20405;-90
2023/06/29 12:41:17;;;;;;;13.83;4.80;;;;;;;;;;6169750;23;20420;-90
2023/06/29 12:43:43;;;;;;;6.07;4.10;;;;;;;;;;6172580;23;20410;-90
2023/06/29 12:46:10;;;;;;;7.20;4.77;;;;;;;;;;6169980;23;21091;-90
2023/06/29 12:48:36;;;;;;;8.07;3.97;;;;;;;;;;6174733;23;20391;-90
2023/06/29 12:51:02;;;;;;;4.37;3.93;;;;;;;;;;6172044;23;20723;-90
2023/06/29 12:53:28;;;;;;;6.13;4.60;;;;;;;;;;6172336;23;20447;-90
2023/06/29 12:55:54;;;;;;;6.03;4.20;;;;;;;;;;6172210;23;20651;-91
2023/06/29 12:58:21;;;;;;;5.43;4.27;;;;;;;;;;6170543;23;20367;-91
2023/06/29 13:00:46;;;;;;;7.07;3.57;;;;;;;;;;6169720;23;20406;-90
2023/06/29 13:03:14;;;;;;;10.23;4.03;;;;;;;;;;6171208;23;20378;-92
2023/06/29 13:05:43;;;;;;;7.67;4.17;;;;;;;;;;6173951;23;20948;-91
2023/06/29 13:08:10;;;;;;;5.30;4.00;;;;;;;;;;6173039;23;20379;-91
2023/06/29 13:10:36;;;;;;;6.40;4.33;;;;;;;;;;6171610;23;20441;-91
2023/06/29 13:13:02;;;;;;;5.53;3.80;;;;;;;;;;6176472;23;20390;-91
2023/06/29 13:15:28;;;;;;;4.73;4.10;;;;;;;;;;6174737;23;20398;-91
2023/06/29 13:17:55;;;;;;;4.93;4.43;;;;;;;;;;6175297;23;20387;-91
2023/06/29 13:20:21;;;;;;;6.30;4.13;;;;;;;;;;6200310;23;20379;-91
2023/06/29 13:22:47;;;;;;;6.13;3.97;;;;;;;;;;6173345;23;20390;-92
2023/06/29 13:25:13;;;;;;;5.20;4.23;;;;;;;;;;6177244;23;21066;-92
2023/06/29 13:27:41;;;;;;;5.13;4.27;;;;;;;;;;6172963;23;20457;-91
2023/06/29 13:30:07;;;;;;;6.10;4.33;;;;;;;;;;6172392;23;20423;-91
2023/06/29 13:32:33;;;;;;;5.30;4.50;;;;;;;;;;6196138;23;20355;-91
2023/06/29 13:34:59;;;;;;;6.57;4.23;;;;;;;;;;6174048;23;20378;-91
2023/06/29 13:37:25;;;;;;;5.63;4.67;;;;;;;;;;6170435;23;20414;-92
2023/06/29 13:39:52;;;;;;;6.07;4.33;;;;;;;;;;6172027;23;20454;-93
2023/06/29 13:57:56;;;;;;;5.53;4.60;;;;;;;;;;6255613;22;20460;-96
2023/06/29 14:00:22;;;;;;;5.90;4.20;;;;;;;;;;6204233;23;20993;-94
2023/06/29 14:02:48;;;;;;;5.07;4.57;;;;;;;;;;6204407;23;20451;-93
2023/06/29 14:05:14;;;;;;;7.30;4.43;;;;;;;;;;6208235;23;20405;-94
2023/06/29 14:07:40;;;;;;;4.20;3.80;;;;;;;;;;6169491;23;20427;-94
2023/06/29 14:10:07;;;;;;;4.60;3.97;;;;;;;;;;6145103;23;20409;-94
2023/06/29 14:12:33;;;;;;;8.47;4.10;;;;;;;;;;6168841;23;20371;-93
2023/06/29 14:14:59;;;;;;;4.83;4.10;;;;;;;;;;6169096;23;20392;-96
2023/06/29 14:17:25;;;;;;;7.20;4.97;;;;;;;;;;6169585;23;20380;-95
2023/06/29 14:19:53;;;;;;;4.67;4.27;;;;;;;;;;6167964;23;20388;-95
2023/06/29 14:22:19;;;;;;;8.40;4.60;;;;;;;;;;6170695;23;20376;-95
2023/06/29 14:24:45;;;;;;;8.40;4.70;;;;;;;;;;6109785;23;20390;-95
2023/06/29 14:27:13;;;;;;;7.80;4.60;;;;;;;;;;6111004;23;20412;-94
2023/06/29 14:29:39;;;;;;;9.90;4.80;;;;;;;;;;6109743;23;20422;-93
2023/06/29 14:32:05;;;;;;;5.80;4.90;;;;;;;;;;6111130;23;20382;-94
2023/06/29 14:34:32;;;;;;;10.80;4.80;;;;;;;;;;6112621;23;20406;-94
2023/06/29 14:37:00;;;;;;;6.07;4.20;;;;;;;;;;6112066;23;20465;-93
2023/06/29 14:39:26;;;;;;;5.10;4.30;;;;;;;;;;6148064;23;20384;-94
2023/06/29 14:41:53;;;;;;;5.67;4.37;;;;;;;;;;6174601;23;20475;-96
2023/06/29 14:44:25;;;;;;;7.30;4.83;;;;;;;;;;6171014;23;20400;-95
2023/06/29 14:46:52;;;;;;;4.70;4.30;;;;;;;;;;6173466;23;20856;-95
2023/06/29 14:49:18;;;;;;;10.57;4.20;;;;;;;;;;6171227;23;20486;-96
2023/06/29 14:51:44;;;;;;;5.90;4.63;;;;;;;;;;6174027;23;20402;-95
2023/06/29 14:54:10;;;;;;;7.20;4.87;;;;;;;;;;6173807;23;20392;-96
2023/06/29 14:56:36;;;;;;;7.80;4.80;;;;;;;;;;6208059;23;20363;-96
2023/06/29 14:59:02;;;;;;;4.63;4.17;;;;;;;;;;6207980;23;20382;-96
2023/06/29 15:01:31;;;;;;;5.63;4.90;;;;;;;;;;6205719;23;20385;-94
2023/06/29 15:03:57;;;;;;;7.97;4.77;;;;;;;;;;6203738;23;20383;-93
2023/06/29 15:06:23;;;;;;;6.83;5.00;;;;;;;;;;6204812;23;20394;-93
2023/06/29 15:08:49;;;;;;;5.03;4.53;;;;;;;;;;6201562;23;20425;-94
2023/06/29 15:11:15;;;;;;;6.40;4.40;;;;;;;;;;6203468;23;20457;-93
2023/06/29 15:13:42;;;;;;;5.60;3.90;;;;;;;;;;6203384;23;20374;-93
2023/06/29 15:16:08;;;;;;;11.20;5.10;;;;;;;;;;6206650;23;20630;-94
2023/06/29 15:18:39;;;;;;;5.63;5.13;;;;;;;;;;6205038;23;20413;-94
2023/06/29 15:21:07;;;;;;;4.90;4.30;;;;;;;;;;6230063;23;20926;-93
2023/06/29 15:23:33;;;;;;;6.80;5.40;;;;;;;;;;6203306;23;20401;-93
2023/06/29 15:25:59;;;;;;;6.33;4.57;;;;;;;;;;6205752;23;20382;-94
2023/06/29 15:28:26;;;;;;;4.70;4.27;;;;;;;;;;6205449;23;20885;-95
2023/06/29 15:30:52;;;;;;;6.43;3.83;;;;;;;;;;6206774;23;20390;-93
2023/06/29 15:33:18;;;;;;;12.93;4.83;;;;;;;;;;6231507;23;20390;-94
2023/06/29 15:35:44;;;;;;;6.33;5.00;;;;;;;;;;6205095;23;20445;-93
2023/06/29 15:38:10;;;;;;;5.17;4.43;;;;;;;;;;6205456;23;20385;-94
2023/06/29 15:40:36;;;;;;;5.00;4.53;;;;;;;;;;6202733;23;20377;-95
2023/06/29 15:43:02;;;;;;;6.23;4.50;;;;;;;;;;6204240;23;20460;-91
2023/06/29 15:45:28;;;;;;;5.03;4.40;;;;;;;;;;6201215;23;20374;-92